createdAt,value
2018-03-07T00:00:13.004Z,32.35
2018-03-07T00:02:40.544Z,31.92
2018-03-07T00:05:08.136Z,30.98
2018-03-07T00:07:35.699Z,33.85
2018-03-07T00:10:03.224Z,35.63
2018-03-07T00:12:30.784Z,33.63
2018-03-07T00:14:58.367Z,31.95
2018-03-07T00:17:26.671Z,34.78
2018-03-07T00:19:54.244Z,33.35
2018-03-07T00:22:22.550Z,33.63
2018-03-07T00:24:50.163Z,33.58
2018-03-07T00:27:17.694Z,35.10
2018-03-07T00:29:45.619Z,33.30
2018-03-07T00:32:13.209Z,34.38
2018-03-07T00:34:40.766Z,34.85
2018-03-07T00:37:08.310Z,33.95
2018-03-07T00:39:35.842Z,35.25
2018-03-07T00:42:04.128Z,33.85
2018-03-07T00:44:32.469Z,34.53
2018-03-07T00:47:00.018Z,34.17
2018-03-07T00:49:27.576Z,34.97
2018-03-07T00:51:55.133Z,34.70
2018-03-07T00:54:22.744Z,37.38
2018-03-07T00:56:51.063Z,34.85
2018-03-07T00:59:18.677Z,33.97
2018-03-07T01:01:47.345Z,33.83
2018-03-07T01:04:14.914Z,35.28
2018-03-07T01:06:42.465Z,37.08
2018-03-07T01:09:10.060Z,35.63
2018-03-07T01:11:37.648Z,36.05
2018-03-07T01:14:05.218Z,36.13
2018-03-07T01:16:32.765Z,36.67
2018-03-07T01:19:00.313Z,36.25
2018-03-07T01:21:27.842Z,35.70
2018-03-07T01:23:55.392Z,38.05
2018-03-07T01:26:22.913Z,34.85
2018-03-07T01:28:50.448Z,35.72
2018-03-07T01:31:18.041Z,34.97
2018-03-07T01:33:45.602Z,34.38
2018-03-07T01:36:13.144Z,34.90
2018-03-07T01:38:40.732Z,35.10
2018-03-07T01:41:08.262Z,34.50
2018-03-07T01:43:35.833Z,35.22
2018-03-07T01:46:03.381Z,34.95
2018-03-07T01:48:30.919Z,39.33
2018-03-07T01:50:58.477Z,33.95
2018-03-07T01:53:26.026Z,34.30
2018-03-07T01:55:54.353Z,36.13
2018-03-07T01:58:21.855Z,38.05
2018-03-07T02:00:50.392Z,34.97
2018-03-07T02:03:17.972Z,35.22
2018-03-07T02:05:45.558Z,35.47
2018-03-07T02:08:13.894Z,36.25
2018-03-07T02:10:41.452Z,35.75
2018-03-07T02:13:09.012Z,36.90
2018-03-07T02:15:36.588Z,36.30
2018-03-07T02:18:04.169Z,38.05
2018-03-07T02:20:31.723Z,37.03
2018-03-07T02:22:59.273Z,37.70
2018-03-07T02:25:26.842Z,38.88
2018-03-07T02:27:54.382Z,37.42
2018-03-07T02:30:21.930Z,37.92
2018-03-07T02:32:49.450Z,38.65
2018-03-07T02:35:17.735Z,37.85
2018-03-07T02:37:45.317Z,37.63
2018-03-07T02:40:12.877Z,36.50
2018-03-07T02:42:40.423Z,36.38
2018-03-07T02:45:08.040Z,37.55
2018-03-07T02:47:35.557Z,40.00
2018-03-07T02:50:03.868Z,39.30
2018-03-07T02:52:31.762Z,37.30
2018-03-07T02:55:00.092Z,37.10
2018-03-07T02:57:28.099Z,38.15
2018-03-07T02:59:56.431Z,37.88
2018-03-07T03:02:23.964Z,37.00
2018-03-07T03:04:51.485Z,35.90
2018-03-07T03:07:19.868Z,37.17
2018-03-07T03:09:48.193Z,38.47
2018-03-07T03:12:15.712Z,36.33
2018-03-07T03:14:44.044Z,39.20
2018-03-07T03:17:11.586Z,37.15
2018-03-07T03:19:39.130Z,36.38
2018-03-07T03:22:06.716Z,37.40
2018-03-07T03:24:34.281Z,36.35
2018-03-07T03:27:01.891Z,37.35
2018-03-07T03:29:29.437Z,37.92
2018-03-07T03:31:56.975Z,39.55
2018-03-07T03:34:24.532Z,37.65
2018-03-07T03:36:52.086Z,40.47
2018-03-07T03:39:19.651Z,39.72
2018-03-07T03:41:47.205Z,38.15
2018-03-07T03:44:14.742Z,40.30
2018-03-07T03:46:42.305Z,38.70
2018-03-07T03:49:09.824Z,36.72
2018-03-07T03:51:37.357Z,37.45
2018-03-07T03:54:04.912Z,38.22
2018-03-07T03:56:32.434Z,41.97
2018-03-07T03:59:00.026Z,39.47
2018-03-07T04:01:27.563Z,36.10
2018-03-07T04:03:55.125Z,39.28
2018-03-07T04:06:22.688Z,39.05
2018-03-07T04:08:50.248Z,37.60
2018-03-07T04:11:17.802Z,37.70
2018-03-07T04:13:45.369Z,37.55
2018-03-07T04:16:12.946Z,36.70
2018-03-07T04:18:40.498Z,39.85
2018-03-07T04:21:08.037Z,37.42
2018-03-07T04:23:35.597Z,38.05
2018-03-07T04:26:03.204Z,38.00
2018-03-07T04:28:30.771Z,38.50
2018-03-07T04:30:58.307Z,39.47
2018-03-07T04:33:25.876Z,39.38
2018-03-07T04:35:54.186Z,37.75
2018-03-07T04:38:22.524Z,36.30
2018-03-07T04:40:50.077Z,38.47
2018-03-07T04:43:17.662Z,40.25
2018-03-07T04:45:45.229Z,40.97
2018-03-07T04:48:13.544Z,38.58
2018-03-07T04:50:41.103Z,36.13
2018-03-07T04:53:08.670Z,39.58
2018-03-07T04:55:36.192Z,40.70
2018-03-07T04:58:03.831Z,39.95
2018-03-07T05:00:31.360Z,40.78
2018-03-07T05:02:58.904Z,38.20
2018-03-07T05:05:26.465Z,40.45
2018-03-07T05:07:53.998Z,40.10
2018-03-07T05:10:22.298Z,38.78
2018-03-07T05:12:49.845Z,42.40
2018-03-07T05:15:18.167Z,40.20
2018-03-07T05:17:45.726Z,42.53
2018-03-07T05:20:13.252Z,39.38
2018-03-07T05:22:40.801Z,38.97
2018-03-07T05:25:09.169Z,40.17
2018-03-07T05:27:37.471Z,37.70
2018-03-07T05:30:05.087Z,40.70
2018-03-07T05:32:32.635Z,41.50
2018-03-07T05:35:00.189Z,41.05
2018-03-07T05:37:27.735Z,42.20
2018-03-07T05:39:55.368Z,37.45
2018-03-07T05:42:22.887Z,40.08
2018-03-07T05:44:50.427Z,39.67
2018-03-07T05:47:17.971Z,37.88
2018-03-07T05:49:45.524Z,38.25
2018-03-07T05:52:13.093Z,37.45
2018-03-07T05:54:40.646Z,40.08
2018-03-07T05:57:08.192Z,39.83
2018-03-07T05:59:35.762Z,41.45
2018-03-07T06:02:03.286Z,40.08
2018-03-07T06:04:31.683Z,41.92
2018-03-07T06:06:59.241Z,37.05
2018-03-07T06:09:26.823Z,40.72
2018-03-07T06:11:54.367Z,42.95
2018-03-07T06:14:21.913Z,37.97
2018-03-07T06:16:49.441Z,39.67
2018-03-07T06:19:17.044Z,39.28
2018-03-07T06:21:44.580Z,37.72
2018-03-07T06:24:12.908Z,39.65
2018-03-07T06:26:40.483Z,40.53
2018-03-07T06:29:08.591Z,42.08
2018-03-07T06:31:36.928Z,42.05
2018-03-07T06:34:04.470Z,41.05
2018-03-07T06:36:32.074Z,40.78
2018-03-07T06:38:59.757Z,41.92
2018-03-07T06:41:28.129Z,40.53
2018-03-07T06:43:56.448Z,41.45
2018-03-07T06:46:24.052Z,43.22
2018-03-07T06:48:51.592Z,45.00
2018-03-07T06:51:19.201Z,42.47
2018-03-07T06:53:47.534Z,47.08
2018-03-07T06:56:15.106Z,45.72
2018-03-07T06:58:42.662Z,44.72
2018-03-07T07:01:10.249Z,50.15
2018-03-07T07:03:38.564Z,46.13
2018-03-07T07:06:06.136Z,44.28
2018-03-07T07:08:33.811Z,45.47
2018-03-07T07:11:01.370Z,41.10
2018-03-07T07:13:28.924Z,44.90
2018-03-07T07:15:56.505Z,47.13
2018-03-07T07:18:24.052Z,44.38
2018-03-07T07:20:51.589Z,48.15
2018-03-07T07:23:19.135Z,44.55
2018-03-07T07:25:46.714Z,46.42
2018-03-07T07:28:14.270Z,44.92
2018-03-07T07:30:41.800Z,43.95
2018-03-07T07:33:09.351Z,41.00
2018-03-07T07:35:36.911Z,39.38
2018-03-07T07:38:05.212Z,40.15
2018-03-07T07:40:32.740Z,39.72
2018-03-07T07:43:01.083Z,40.53
2018-03-07T07:45:28.717Z,37.92
2018-03-07T07:47:56.301Z,39.80
2018-03-07T07:50:23.896Z,37.15
2018-03-07T07:52:52.259Z,40.88
2018-03-07T07:55:19.855Z,35.10
2018-03-07T07:57:47.433Z,36.58
2018-03-07T08:00:15.003Z,34.58
2018-03-07T08:02:42.589Z,34.55
2018-03-07T08:05:10.255Z,31.35
2018-03-07T08:07:37.837Z,32.15
2018-03-07T08:10:05.397Z,31.12
2018-03-07T08:12:33.716Z,29.77
2018-03-07T08:15:01.276Z,28.92
2018-03-07T08:17:28.906Z,28.77
2018-03-07T08:19:57.307Z,29.20
2018-03-07T08:22:24.901Z,27.17
2018-03-07T08:24:53.321Z,30.25
2018-03-07T08:27:21.719Z,27.92
2018-03-07T08:29:49.343Z,29.17
2018-03-07T08:32:17.799Z,32.10
2018-03-07T08:34:45.355Z,29.08
2018-03-07T08:37:13.213Z,31.12
2018-03-07T08:39:40.948Z,29.02
2018-03-07T08:42:08.537Z,29.30
2018-03-07T08:44:36.132Z,31.02
2018-03-07T08:47:03.741Z,31.08
2018-03-07T08:49:31.287Z,33.15
2018-03-07T08:51:58.849Z,32.05
2018-03-07T08:54:26.440Z,29.83
2018-03-07T08:56:54.001Z,27.50
2018-03-07T08:59:21.542Z,27.75
2018-03-07T09:01:49.136Z,30.95
2018-03-07T09:04:17.565Z,26.55
2018-03-07T09:06:45.987Z,27.30
2018-03-07T09:09:13.591Z,27.92
2018-03-07T09:11:41.919Z,26.25
2018-03-07T09:14:09.474Z,28.48
2018-03-07T09:16:37.042Z,26.67
2018-03-07T09:19:04.682Z,20.00
2018-03-07T09:21:32.216Z,16.37
2018-03-07T09:24:00.557Z,16.62
2018-03-07T09:26:28.131Z,16.87
2018-03-07T09:28:55.701Z,19.80
2018-03-07T09:31:23.300Z,17.00
2018-03-07T09:33:50.888Z,17.70
2018-03-07T09:36:18.449Z,19.52
2018-03-07T09:38:46.055Z,18.90
2018-03-07T09:41:14.445Z,19.95
2018-03-07T09:43:42.007Z,19.17
2018-03-07T09:46:09.600Z,15.55
2018-03-07T09:48:37.144Z,19.58
2018-03-07T09:51:04.758Z,16.90
2018-03-07T09:53:32.371Z,17.80
2018-03-07T09:55:59.937Z,22.52
2018-03-07T09:58:27.523Z,16.60
2018-03-07T10:00:55.141Z,17.15
2018-03-07T10:03:22.704Z,18.15
2018-03-07T10:05:50.259Z,18.10
2018-03-07T10:08:17.784Z,18.95
2018-03-07T10:10:45.349Z,19.95
2018-03-07T10:13:13.728Z,21.00
2018-03-07T10:15:41.277Z,21.00
2018-03-07T10:18:08.850Z,20.65
2018-03-07T10:20:36.403Z,20.50
2018-03-07T10:23:04.044Z,18.48
2018-03-07T10:25:31.582Z,20.40
2018-03-07T10:27:59.168Z,19.77
2018-03-07T10:30:27.849Z,18.50
2018-03-07T10:32:55.478Z,19.25
2018-03-07T10:35:23.867Z,17.85
2018-03-07T10:37:51.426Z,18.50
2018-03-07T10:40:18.980Z,16.75
2018-03-07T10:42:46.550Z,17.17
2018-03-07T10:45:14.103Z,14.95
2018-03-07T10:47:41.712Z,17.60
2018-03-07T10:50:09.300Z,17.15
2018-03-07T10:52:36.843Z,15.85
2018-03-07T10:55:05.146Z,14.93
2018-03-07T10:57:32.698Z,14.60
2018-03-07T11:00:00.378Z,14.63
2018-03-07T11:02:27.951Z,18.40
2018-03-07T11:04:55.582Z,13.20
2018-03-07T11:07:23.223Z,14.38
2018-03-07T11:09:52.306Z,14.80
2018-03-07T11:12:20.005Z,13.13
2018-03-07T11:14:47.604Z,13.20
2018-03-07T11:17:15.214Z,12.30
2018-03-07T11:19:43.482Z,12.37
2018-03-07T11:22:11.814Z,13.35
2018-03-07T11:24:39.383Z,12.63
2018-03-07T11:27:07.238Z,12.50
2018-03-07T11:29:34.772Z,13.73
2018-03-07T11:32:03.163Z,11.07
2018-03-07T11:34:30.723Z,12.95
2018-03-07T11:36:58.329Z,14.27
2018-03-07T11:39:25.868Z,12.23
2018-03-07T11:41:53.462Z,10.95
2018-03-07T11:44:21.021Z,12.35
2018-03-07T11:46:49.507Z,13.00
2018-03-07T11:49:17.896Z,13.25
2018-03-07T11:51:46.184Z,13.95
2018-03-07T11:54:13.833Z,14.50
2018-03-07T11:56:42.159Z,13.70
2018-03-07T11:59:09.760Z,13.43
2018-03-07T12:01:37.395Z,12.32
2018-03-07T12:04:04.948Z,12.65
2018-03-07T12:06:32.743Z,10.05
2018-03-07T12:09:01.074Z,10.80
2018-03-07T12:11:28.703Z,12.05
2018-03-07T12:13:56.331Z,11.90
2018-03-07T12:16:23.911Z,15.20
2018-03-07T12:18:51.485Z,16.62
2018-03-07T12:21:19.113Z,16.62
2018-03-07T12:23:46.675Z,17.15
2018-03-07T12:26:14.259Z,14.85
2018-03-07T12:28:42.568Z,16.05
2018-03-07T12:31:10.166Z,14.23
2018-03-07T12:33:37.721Z,15.93
2018-03-07T12:36:05.287Z,15.13
2018-03-07T12:38:33.686Z,16.20
2018-03-07T12:41:02.055Z,16.45
2018-03-07T12:43:29.624Z,17.90
2018-03-07T12:45:57.974Z,18.73
2018-03-07T12:48:25.534Z,15.85
2018-03-07T12:50:53.902Z,15.23
2018-03-07T12:53:21.474Z,16.20
2018-03-07T12:55:49.053Z,14.65
2018-03-07T12:58:16.610Z,15.77
2018-03-07T13:00:44.979Z,14.30
2018-03-07T13:03:12.533Z,15.30
2018-03-07T13:05:40.118Z,16.90
2018-03-07T13:08:08.474Z,16.45
2018-03-07T13:10:36.191Z,18.05
2018-03-07T13:13:03.785Z,17.95
2018-03-07T13:15:31.348Z,19.15
2018-03-07T13:17:58.895Z,18.67
2018-03-07T13:20:27.415Z,19.12
2018-03-07T13:22:55.789Z,17.00
2018-03-07T13:25:24.540Z,19.05
2018-03-07T13:27:52.123Z,19.85
2018-03-07T13:30:19.719Z,18.55
2018-03-07T13:32:47.298Z,20.08
2018-03-07T13:35:14.901Z,19.52
2018-03-07T13:37:42.951Z,17.73
2018-03-07T13:40:10.563Z,17.98
2018-03-07T13:42:38.963Z,17.10
2018-03-07T13:45:07.402Z,17.75
2018-03-07T13:47:35.065Z,16.75
2018-03-07T13:50:02.669Z,15.45
2018-03-07T13:52:30.251Z,13.05
2018-03-07T13:54:57.772Z,15.38
2018-03-07T13:57:26.305Z,14.10
2018-03-07T13:59:53.937Z,12.88
2018-03-07T14:02:21.508Z,11.48
2018-03-07T14:04:49.103Z,11.27
2018-03-07T14:07:16.682Z,12.98
2018-03-07T14:09:44.479Z,12.23
2018-03-07T14:12:12.131Z,12.25
2018-03-07T14:14:40.433Z,12.15
2018-03-07T14:17:08.020Z,9.82
2018-03-07T14:19:35.860Z,9.25
2018-03-07T14:22:03.429Z,12.13
2018-03-07T14:24:31.820Z,12.70
2018-03-07T14:26:59.478Z,13.23
2018-03-07T14:29:27.092Z,13.60
2018-03-07T14:31:55.779Z,13.07
2018-03-07T14:34:24.093Z,10.35
2018-03-07T14:36:51.715Z,10.20
2018-03-07T14:39:19.358Z,9.98
2018-03-07T14:41:46.905Z,10.95
2018-03-07T14:44:15.279Z,13.65
2018-03-07T14:46:43.298Z,13.00
2018-03-07T14:49:11.315Z,17.87
2018-03-07T14:51:39.205Z,16.42
2018-03-07T14:54:06.804Z,15.85
2018-03-07T14:56:34.394Z,15.65
2018-03-07T14:59:01.939Z,15.07
2018-03-07T15:01:29.605Z,15.73
2018-03-07T15:03:57.176Z,14.35
2018-03-07T15:06:24.759Z,12.77
2018-03-07T15:08:52.438Z,13.73
2018-03-07T15:11:19.998Z,12.82
2018-03-07T15:13:48.309Z,12.37
2018-03-07T15:16:15.957Z,14.70
2018-03-07T15:18:44.337Z,14.27
2018-03-07T15:21:12.717Z,14.52
2018-03-07T15:23:40.331Z,15.25
2018-03-07T15:26:07.969Z,12.07
2018-03-07T15:28:35.487Z,14.13
2018-03-07T15:31:03.896Z,15.75
2018-03-07T15:33:31.470Z,13.18
2018-03-07T15:35:59.022Z,13.88
2018-03-07T15:38:27.002Z,11.30
2018-03-07T15:40:54.589Z,12.70
2018-03-07T15:43:22.197Z,13.82
2018-03-07T15:45:49.851Z,14.52
2018-03-07T15:48:17.394Z,14.00
2018-03-07T15:50:45.774Z,11.80
2018-03-07T15:53:13.317Z,12.90
2018-03-07T15:55:40.935Z,12.25
2018-03-07T15:58:08.564Z,13.75
2018-03-07T16:00:36.943Z,13.73
2018-03-07T16:03:05.372Z,13.50
2018-03-07T16:05:32.916Z,13.13
2018-03-07T16:08:00.552Z,13.05
2018-03-07T16:10:29.620Z,14.23
2018-03-07T16:12:57.225Z,14.25
2018-03-07T16:15:24.764Z,14.00
2018-03-07T16:17:53.195Z,11.77
2018-03-07T16:20:20.795Z,11.95
2018-03-07T16:22:49.099Z,12.35
2018-03-07T16:25:16.692Z,11.98
2018-03-07T16:27:45.108Z,11.32
2018-03-07T16:30:13.491Z,12.95
2018-03-07T16:32:41.874Z,11.50
2018-03-07T16:35:10.226Z,18.48
2018-03-07T16:37:37.813Z,17.02
2018-03-07T16:40:05.346Z,11.80
2018-03-07T16:42:33.071Z,11.95
2018-03-07T16:45:00.633Z,13.48
2018-03-07T16:47:28.210Z,12.70
2018-03-07T16:49:55.802Z,14.45
2018-03-07T16:52:23.496Z,13.45
2018-03-07T16:54:51.850Z,12.63
2018-03-07T16:57:19.429Z,13.60
2018-03-07T16:59:47.027Z,17.60
2018-03-07T17:02:14.647Z,21.35
2018-03-07T17:04:42.349Z,21.15
2018-03-07T17:07:09.929Z,20.05
2018-03-07T17:09:38.450Z,18.42
2018-03-07T17:12:06.405Z,18.35
2018-03-07T17:14:34.000Z,21.60
2018-03-07T17:17:01.543Z,19.87
2018-03-07T17:19:29.836Z,17.27
2018-03-07T17:21:57.481Z,17.17
2018-03-07T17:24:25.294Z,17.80
2018-03-07T17:26:53.011Z,18.85
2018-03-07T17:29:24.747Z,21.85
2018-03-07T17:31:52.452Z,20.27
2018-03-07T17:34:20.047Z,18.42
2018-03-07T17:36:47.654Z,19.25
2018-03-07T17:39:15.250Z,21.85
2018-03-07T17:41:42.792Z,23.17
2018-03-07T17:44:10.401Z,24.23
2018-03-07T17:46:38.726Z,22.35
2018-03-07T17:49:06.300Z,23.30
2018-03-07T17:51:33.845Z,23.95
2018-03-07T17:54:01.465Z,23.38
2018-03-07T17:56:29.033Z,22.85
2018-03-07T17:58:56.644Z,24.10
2018-03-07T18:01:25.029Z,20.75
2018-03-07T18:03:52.652Z,19.27
2018-03-07T18:06:20.993Z,21.00
2018-03-07T18:08:48.544Z,23.33
2018-03-07T18:11:17.830Z,21.98
2018-03-07T18:13:46.524Z,22.77
2018-03-07T18:16:14.098Z,23.05
2018-03-07T18:18:41.826Z,23.62
2018-03-07T18:21:09.493Z,22.20
2018-03-07T18:23:37.753Z,22.48
2018-03-07T18:26:05.346Z,22.23
2018-03-07T18:28:32.973Z,21.73
2018-03-07T18:31:00.585Z,22.08
2018-03-07T18:33:28.192Z,22.80
2018-03-07T18:35:56.601Z,21.80
2018-03-07T18:38:24.268Z,23.45
2018-03-07T18:40:51.810Z,25.60
2018-03-07T18:43:19.448Z,24.20
2018-03-07T18:45:47.540Z,24.87
2018-03-07T18:48:15.142Z,28.12
2018-03-07T18:50:42.763Z,28.92
2018-03-07T18:53:10.300Z,26.73
2018-03-07T18:55:38.280Z,26.67
2018-03-07T18:58:05.834Z,27.83
2018-03-07T19:00:34.136Z,25.83
2018-03-07T19:03:01.767Z,27.52
2018-03-07T19:05:30.244Z,25.58
2018-03-07T19:07:58.538Z,29.33
2018-03-07T19:10:26.860Z,24.52
2018-03-07T19:12:54.499Z,28.85
2018-03-07T19:15:22.038Z,29.35
2018-03-07T19:17:49.690Z,27.77
2018-03-07T19:20:19.656Z,30.65
2018-03-07T19:22:47.212Z,29.95
2018-03-07T19:25:14.799Z,27.40
2018-03-07T19:27:43.202Z,27.42
2018-03-07T19:30:11.543Z,32.15
2018-03-07T19:32:39.265Z,29.85
2018-03-07T19:35:07.633Z,33.38
2018-03-07T19:37:35.975Z,31.33
2018-03-07T19:40:03.565Z,30.08
2018-03-07T19:42:31.202Z,31.73
2018-03-07T19:44:58.758Z,30.20
2018-03-07T19:47:26.322Z,30.42
2018-03-07T19:49:53.865Z,31.83
2018-03-07T19:52:21.497Z,32.03
2018-03-07T19:54:49.045Z,30.50
2018-03-07T19:57:16.719Z,34.25
2018-03-07T19:59:44.280Z,30.23
2018-03-07T20:02:12.661Z,28.42
2018-03-07T20:04:40.248Z,28.35
2018-03-07T20:07:07.902Z,29.52
2018-03-07T20:09:35.461Z,30.73
2018-03-07T20:12:03.905Z,30.17
2018-03-07T20:14:31.506Z,33.78
2018-03-07T20:16:59.152Z,30.90
2018-03-07T20:19:26.711Z,25.65
2018-03-07T20:21:54.328Z,22.27
2018-03-07T20:24:21.920Z,22.27
2018-03-07T20:26:49.524Z,19.95
2018-03-07T20:29:17.105Z,16.23
2018-03-07T20:31:45.520Z,15.65
2018-03-07T20:34:13.144Z,13.90
2018-03-07T20:36:40.795Z,12.90
2018-03-07T20:39:08.389Z,12.35
2018-03-07T20:41:35.954Z,13.00
2018-03-07T20:44:03.534Z,12.85
2018-03-07T20:46:31.944Z,13.77
2018-03-07T20:48:59.516Z,12.95
2018-03-07T20:51:27.083Z,12.10
2018-03-07T20:53:54.620Z,11.50
2018-03-07T20:56:22.265Z,12.73
2018-03-07T20:58:49.853Z,12.90
2018-03-07T21:01:17.432Z,11.70
2018-03-07T21:03:45.014Z,13.00
2018-03-07T21:06:12.637Z,12.05
2018-03-07T21:08:40.285Z,13.48
2018-03-07T21:11:08.650Z,15.15
2018-03-07T21:13:36.918Z,16.02
2018-03-07T21:16:04.495Z,17.35
2018-03-07T21:18:32.248Z,16.73
2018-03-07T21:21:00.478Z,16.83
2018-03-07T21:23:28.866Z,17.90
2018-03-07T21:25:57.161Z,16.92
2018-03-07T21:28:24.748Z,18.17
2018-03-07T21:30:52.543Z,17.70
2018-03-07T21:33:20.166Z,19.60
2018-03-07T21:35:47.759Z,19.23
2018-03-07T21:38:15.352Z,17.00
2018-03-07T21:40:43.749Z,17.58
2018-03-07T21:43:11.365Z,17.02
2018-03-07T21:45:38.927Z,19.77
2018-03-07T21:48:08.151Z,19.25
2018-03-07T21:50:36.468Z,19.25
2018-03-07T21:53:04.051Z,19.02
2018-03-07T21:55:31.612Z,19.67
2018-03-07T21:57:59.161Z,19.55
2018-03-07T22:00:26.739Z,21.98
2018-03-07T22:02:54.301Z,20.20
2018-03-07T22:05:21.860Z,20.60
2018-03-07T22:07:49.471Z,19.67
2018-03-07T22:10:16.999Z,22.13
2018-03-07T22:12:45.338Z,21.67
2018-03-07T22:15:13.748Z,21.10
2018-03-07T22:17:42.287Z,22.55
2018-03-07T22:20:09.871Z,22.58
2018-03-07T22:22:37.431Z,23.15
2018-03-07T22:25:05.009Z,21.70
2018-03-07T22:27:32.594Z,21.02
2018-03-07T22:30:00.146Z,21.65
2018-03-07T22:32:28.498Z,21.70
2018-03-07T22:34:57.452Z,24.33
2018-03-07T22:37:25.022Z,20.80
2018-03-07T22:39:52.594Z,22.62
2018-03-07T22:42:20.189Z,22.30
2018-03-07T22:44:47.750Z,23.48
2018-03-07T22:47:16.094Z,22.85
2018-03-07T22:49:43.688Z,23.08
2018-03-07T22:52:12.280Z,22.15
2018-03-07T22:54:40.642Z,23.55
2018-03-07T22:57:09.262Z,22.90
2018-03-07T22:59:36.809Z,24.87
2018-03-07T23:02:04.344Z,22.83
2018-03-07T23:04:32.667Z,21.98
2018-03-07T23:07:00.233Z,23.12
2018-03-07T23:09:27.887Z,20.60
2018-03-07T23:11:55.482Z,22.80
2018-03-07T23:14:23.113Z,22.73
2018-03-07T23:16:50.751Z,20.95
2018-03-07T23:19:18.327Z,24.02
2018-03-07T23:21:47.329Z,24.87
2018-03-07T23:24:14.862Z,23.42
2018-03-07T23:26:42.459Z,23.62
2018-03-07T23:29:11.011Z,24.00
2018-03-07T23:31:38.570Z,23.12
2018-03-07T23:34:06.137Z,22.95
2018-03-07T23:36:33.641Z,20.45
2018-03-07T23:39:01.217Z,21.05
2018-03-07T23:41:28.801Z,17.75
2018-03-07T23:43:56.430Z,14.15
2018-03-07T23:46:23.981Z,16.70
2018-03-07T23:48:51.542Z,14.35
2018-03-07T23:51:19.119Z,17.77
2018-03-07T23:53:46.701Z,16.23
2018-03-07T23:56:14.261Z,16.55
2018-03-07T23:58:41.857Z,13.30
